Time;durP1;ratioP1;P1;durP2;ratioP2;P2;SDS_P1;SDS_P2;PMS_P1;PMS_P2;Temp;Humidity;BMP_temperature;BMP_pressure;BME280_temperature;BME280_humidity;BME280_pressure;Samples;Min_cycle;Max_cycle;Signal;HPM_P1;HPM_P2
2023/05/01 00:01:07;;;;;;;10.02;2.65;;;5.40;99.90;;;;;;5056600;28;20438;-67
2023/05/01 00:03:47;;;;;;;8.70;3.78;;;5.40;99.90;;;;;;5061342;28;20562;-68
2023/05/01 00:06:28;;;;;;;10.05;2.70;;;5.40;99.90;;;;;;5078845;28;20373;-64
2023/05/01 00:09:09;;;;;;;18.92;2.70;;;5.40;99.90;;;;;;5079439;28;20048;-65
2023/05/01 00:11:50;;;;;;;7.72;2.40;;;5.30;99.90;;;;;;5079230;28;20040;-65
2023/05/01 00:14:30;;;;;;;9.30;2.80;;;5.30;99.90;;;;;;5078832;28;20119;-65
2023/05/01 00:17:11;;;;;;;7.43;2.90;;;5.20;99.90;;;;;;5074833;28;20838;-64
2023/05/01 00:19:55;;;;;;;10.35;3.17;;;5.30;99.90;;;;;;5067236;28;20108;-65
2023/05/01 00:22:40;;;;;;;6.82;2.90;;;5.30;99.90;;;;;;5059498;28;20044;-66
2023/05/01 00:25:24;;;;;;;6.70;2.58;;;5.20;99.90;;;;;;5065250;28;20570;-68
2023/05/01 00:27:50;;;;;;;6.57;2.80;;;5.20;99.90;;;;;;5065067;28;20140;-67
2023/05/01 00:30:34;;;;;;;8.75;2.65;;;5.20;99.90;;;;;;5060328;28;20048;-68
2023/05/01 00:33:15;;;;;;;9.68;2.80;;;5.20;99.90;;;;;;5062413;28;20037;-68
2023/05/01 00:35:43;;;;;;;5.97;3.00;;;5.30;99.90;;;;;;5057841;28;20052;-67
2023/05/01 00:38:09;;;;;;;8.80;3.08;;;5.20;99.90;;;;;;5063745;28;20044;-66
2023/05/01 00:40:41;;;;;;;8.32;3.03;;;5.30;99.90;;;;;;5064721;28;20036;-66
2023/05/01 00:43:07;;;;;;;5.15;2.78;;;5.30;99.90;;;;;;5064460;28;20054;-66
2023/05/01 00:45:33;;;;;;;16.35;3.22;;;5.30;99.90;;;;;;5065178;28;20428;-67
2023/05/01 00:47:59;;;;;;;7.88;3.05;;;5.30;99.90;;;;;;5065177;28;20588;-66
2023/05/01 00:50:24;;;;;;;5.70;2.72;;;5.20;99.90;;;;;;5064389;28;20051;-66
2023/05/01 00:52:50;;;;;;;7.65;2.90;;;5.30;99.90;;;;;;5063291;28;20515;-66
2023/05/01 00:55:16;;;;;;;;;;;5.30;99.90;;;;;;5063897;28;20055;-66
2023/05/01 00:57:41;;;;;;;12.80;2.78;;;5.20;99.90;;;;;;5057555;28;19924;-66
2023/05/01 01:00:11;;;;;;;;;;;5.20;99.90;;;;;;5064936;28;20036;-66
2023/05/01 01:02:36;;;;;;;8.27;3.03;;;5.20;99.90;;;;;;5061134;28;20098;-66
2023/05/01 01:05:04;;;;;;;7.97;2.70;;;5.20;99.90;;;;;;5065192;28;20773;-66
2023/05/01 01:07:40;;;;;;;5.53;2.60;;;5.20;99.90;;;;;;5065722;28;20040;-65
2023/05/01 01:10:10;;;;;;;4.53;2.47;;;5.20;99.90;;;;;;5065226;28;20511;-66
2023/05/01 01:13:01;;;;;;;6.40;2.88;;;5.20;99.90;;;;;;5064035;28;20520;-66
2023/05/01 01:15:56;;;;;;;11.73;3.10;;;5.20;99.90;;;;;;5066897;28;20043;-67
2023/05/01 01:18:35;;;;;;;9.05;3.00;;;5.20;99.90;;;;;;5070256;28;20045;-66
2023/05/01 01:21:27;;;;;;;6.35;2.53;;;5.10;99.90;;;;;;5047186;28;20041;-66
2023/05/01 01:24:30;;;;;;;5.72;2.97;;;5.10;99.90;;;;;;5065389;28;20052;-67
2023/05/01 01:27:25;;;;;;;4.22;2.22;;;5.10;99.90;;;;;;5057594;28;20037;-66
2023/05/01 01:30:08;;;;;;;4.45;2.50;;;5.10;99.90;;;;;;5063000;28;20049;-67
2023/05/01 01:32:49;;;;;;;8.18;2.72;;;5.00;99.90;;;;;;5060465;28;20037;-67
2023/05/01 01:35:23;;;;;;;11.10;3.05;;;5.00;99.90;;;;;;5062359;28;20751;-68
2023/05/01 01:38:12;;;;;;;8.15;3.13;;;5.10;99.90;;;;;;5057036;28;20044;-68
2023/05/01 01:40:52;;;;;;;11.45;2.90;;;5.00;99.90;;;;;;5063119;28;20510;-67
2023/05/01 01:43:21;;;;;;;10.90;2.88;;;5.00;99.90;;;;;;5064029;28;20056;-66
2023/05/01 01:45:52;;;;;;;4.88;2.38;;;5.00;99.90;;;;;;5026703;28;20799;-66
2023/05/01 01:48:25;;;;;;;8.82;3.03;;;4.90;99.90;;;;;;5053197;28;20412;-66
2023/05/01 01:50:53;;;;;;;8.02;2.60;;;4.90;99.90;;;;;;5060794;28;20488;-67
2023/05/01 01:53:20;;;;;;;11.82;3.20;;;4.90;99.90;;;;;;5060526;28;20047;-66
2023/05/01 01:55:47;;;;;;;7.18;3.30;;;4.90;99.90;;;;;;5063418;28;20083;-68
2023/05/01 01:58:15;;;;;;;11.45;3.03;;;5.00;99.90;;;;;;5044820;28;20108;-66
2023/05/01 02:00:43;;;;;;;5.82;2.55;;;5.00;99.90;;;;;;5060863;28;20296;-67
2023/05/01 02:03:09;;;;;;;5.00;2.88;;;5.00;99.90;;;;;;5061730;28;20460;-67
2023/05/01 02:05:36;;;;;;;8.48;2.70;;;5.10;99.90;;;;;;5063155;28;20047;-67
2023/05/01 02:08:04;;;;;;;6.97;3.75;;;5.00;99.90;;;;;;5063449;28;20127;-67
2023/05/01 02:10:31;;;;;;;5.57;2.50;;;5.00;99.90;;;;;;5062155;28;20087;-69
2023/05/01 02:12:58;;;;;;;6.30;2.88;;;5.00;99.90;;;;;;5060804;28;20076;-68
2023/05/01 02:15:26;;;;;;;6.57;2.60;;;5.00;99.90;;;;;;5063321;28;20044;-66
2023/05/01 02:17:52;;;;;;;5.63;2.95;;;4.90;99.90;;;;;;5060866;28;20036;-67
2023/05/01 02:20:20;;;;;;;8.35;2.90;;;5.00;99.90;;;;;;5065676;28;20082;-68
2023/05/01 02:22:47;;;;;;;10.93;3.45;;;4.90;99.90;;;;;;5043612;28;20814;-67
2023/05/01 02:25:14;;;;;;;6.30;2.97;;;4.80;99.90;;;;;;5041718;28;20086;-67
2023/05/01 02:27:48;;;;;;;6.07;2.75;;;4.90;99.90;;;;;;5062664;28;20305;-66
2023/05/01 02:30:14;;;;;;;8.30;2.80;;;4.90;99.90;;;;;;5062460;28;20197;-69
2023/05/01 02:32:40;;;;;;;11.52;3.00;;;4.90;99.90;;;;;;5037494;28;20132;-67
2023/05/01 02:35:06;;;;;;;8.40;2.67;;;4.90;99.90;;;;;;5045933;28;20044;-67
2023/05/01 02:37:31;;;;;;;5.97;2.80;;;4.90;99.90;;;;;;5045570;28;20519;-68
2023/05/01 02:39:58;;;;;;;8.10;2.78;;;5.00;99.90;;;;;;5062613;28;20115;-67
2023/05/01 02:42:25;;;;;;;6.35;2.50;;;5.00;99.90;;;;;;5062101;28;20040;-67
2023/05/01 02:44:56;;;;;;;5.18;2.25;;;5.00;99.90;;;;;;5058876;28;20765;-68
2023/05/01 02:47:23;;;;;;;7.10;3.58;;;5.10;99.90;;;;;;5063917;28;20506;-67
2023/05/01 02:49:50;;;;;;;7.45;2.50;;;5.20;99.90;;;;;;5056061;28;20095;-69
2023/05/01 02:52:18;;;;;;;7.70;2.58;;;5.20;99.90;;;;;;5060020;28;20036;-67
2023/05/01 02:54:44;;;;;;;7.78;2.60;;;5.20;99.90;;;;;;5062986;28;20052;-67
2023/05/01 02:57:10;;;;;;;5.43;2.20;;;5.20;99.90;;;;;;5063127;28;20040;-67
2023/05/01 02:59:36;;;;;;;9.80;2.83;;;5.20;99.90;;;;;;5062630;28;20051;-66
2023/05/01 03:02:02;;;;;;;9.32;2.40;;;5.20;99.90;;;;;;5059999;28;20036;-66
2023/05/01 03:04:27;;;;;;;;;;;5.20;99.90;;;;;;5063897;28;20120;-67
2023/05/01 03:06:53;;;;;;;12.43;2.50;;;5.20;99.90;;;;;;5061420;28;19928;-66
2023/05/01 03:09:20;;;;;;;14.45;2.60;;;5.30;99.90;;;;;;5059589;28;20041;-66
2023/05/01 03:11:46;;;;;;;10.60;2.95;;;5.30;99.90;;;;;;5060408;28;20041;-66
2023/05/01 03:14:12;;;;;;;8.65;2.70;;;5.30;99.90;;;;;;5060958;28;20859;-66
2023/05/01 03:16:38;;;;;;;6.20;2.00;;;5.20;99.90;;;;;;5062999;28;20040;-66
2023/05/01 03:19:04;;;;;;;;;;;5.30;99.90;;;;;;5063991;28;20033;-67
2023/05/01 03:21:31;;;;;;;5.65;2.25;;;5.20;99.90;;;;;;5061915;28;19924;-67
2023/05/01 03:23:57;;;;;;;7.68;2.50;;;5.20;99.90;;;;;;5062412;28;20131;-65
2023/05/01 03:26:23;;;;;;;4.45;1.70;;;5.10;99.90;;;;;;5063209;28;20464;-65
2023/05/01 03:28:48;;;;;;;;;;;5.00;99.90;;;;;;5062209;28;20041;-68
2023/05/01 03:31:14;;;;;;;5.57;1.90;;;5.00;99.90;;;;;;5057082;28;19924;-66
2023/05/01 03:33:40;;;;;;;5.80;1.85;;;5.00;99.90;;;;;;5058201;28;20059;-67
2023/05/01 03:36:05;;;;;;;6.75;1.88;;;5.00;99.90;;;;;;5062612;28;20477;-67
2023/05/01 03:38:32;;;;;;;5.57;2.45;;;4.90;99.90;;;;;;5063648;28;20043;-66
2023/05/01 03:40:58;;;;;;;5.97;2.20;;;5.00;99.90;;;;;;5061598;28;20548;-66
2023/05/01 03:43:24;;;;;;;6.03;2.67;;;5.00;99.90;;;;;;5062689;28;20123;-66
2023/05/01 03:45:50;;;;;;;5.57;2.05;;;4.90;99.90;;;;;;5063611;28;20070;-67
2023/05/01 03:48:17;;;;;;;6.68;2.63;;;4.90;99.90;;;;;;5045342;28;20068;-67
2023/05/01 03:50:42;;;;;;;7.18;2.53;;;4.90;99.90;;;;;;5047190;28;20750;-67
2023/05/01 03:53:08;;;;;;;8.45;2.15;;;5.00;99.90;;;;;;5065147;28;20130;-66
2023/05/01 03:55:34;;;;;;;7.78;2.58;;;5.00;99.90;;;;;;5067227;28;20570;-67
2023/05/01 03:58:00;;;;;;;7.05;2.78;;;5.00;99.90;;;;;;5066034;28;20127;-67
2023/05/01 04:00:25;;;;;;;;;;;5.00;99.90;;;;;;5062132;28;20036;-66
2023/05/01 04:02:51;;;;;;;17.33;2.35;;;5.00;99.90;;;;;;5065432;28;19947;-66
2023/05/01 04:05:17;;;;;;;8.35;2.92;;;5.00;99.90;;;;;;5049726;28;20064;-66
2023/05/01 04:07:43;;;;;;;6.45;2.03;;;5.10;99.90;;;;;;5066142;28;20078;-66
2023/05/01 04:10:09;;;;;;;12.07;3.15;;;5.10;99.90;;;;;;5065502;28;20106;-66
2023/05/01 04:12:35;;;;;;;9.00;3.13;;;5.10;99.90;;;;;;5062854;28;20385;-66
2023/05/01 04:15:01;;;;;;;;;;;5.20;99.90;;;;;;5067712;28;20102;-67
2023/05/01 04:17:30;;;;;;;8.40;2.33;;;5.20;99.90;;;;;;5066969;28;19920;-66
2023/05/01 04:19:56;;;;;;;5.00;2.35;;;5.20;99.90;;;;;;5051963;28;20082;-67
2023/05/01 04:22:22;;;;;;;7.50;2.60;;;5.30;99.90;;;;;;5064229;28;20097;-66
2023/05/01 04:24:48;;;;;;;5.07;2.35;;;5.30;99.90;;;;;;5066982;28;21107;-68
2023/05/01 04:27:14;;;;;;;7.88;2.10;;;5.30;99.90;;;;;;5046074;28;20063;-67
2023/05/01 04:29:40;;;;;;;8.35;2.50;;;5.40;99.90;;;;;;5065723;28;20036;-67
2023/05/01 04:32:06;;;;;;;3.17;1.90;;;5.40;99.90;;;;;;5061107;28;20044;-67
2023/05/01 04:34:32;;;;;;;4.72;1.98;;;5.40;99.90;;;;;;5061519;28;20044;-67
2023/05/01 04:36:58;;;;;;;5.53;2.33;;;5.50;99.90;;;;;;5066715;28;20044;-67
2023/05/01 04:39:23;;;;;;;5.15;2.22;;;5.50;99.90;;;;;;5066840;28;20645;-68
2023/05/01 04:41:49;;;;;;;3.58;1.95;;;5.60;99.90;;;;;;5064602;28;20869;-67
2023/05/01 04:44:15;;;;;;;;;;;5.70;99.90;;;;;;5058561;28;20044;-68
2023/05/01 04:46:40;;;;;;;2.88;1.80;;;5.70;99.90;;;;;;5064377;28;19962;-67
2023/05/01 04:49:07;;;;;;;3.60;2.13;;;5.70;99.90;;;;;;5066258;28;20127;-67
2023/05/01 04:51:32;;;;;;;4.55;2.40;;;5.80;99.90;;;;;;5063568;28;20411;-67
2023/05/01 04:53:58;;;;;;;5.32;2.40;;;5.90;99.90;;;;;;5066430;28;20048;-67
2023/05/01 04:56:24;;;;;;;5.95;2.42;;;5.90;99.90;;;;;;5065608;28;20053;-66
2023/05/01 04:58:50;;;;;;;6.88;2.35;;;6.00;99.90;;;;;;5065819;28;20041;-65
2023/05/01 05:01:16;;;;;;;4.78;2.30;;;6.00;99.90;;;;;;5050931;28;20044;-67
2023/05/01 05:03:42;;;;;;;5.40;1.83;;;6.10;99.90;;;;;;5054487;28;20051;-65
2023/05/01 05:06:08;;;;;;;9.75;2.40;;;6.10;99.90;;;;;;5065628;28;20032;-68
2023/05/01 05:08:33;;;;;;;10.02;2.42;;;6.10;99.90;;;;;;5057436;28;20040;-66
2023/05/01 05:11:00;;;;;;;4.82;2.58;;;6.20;99.90;;;;;;5064058;28;20094;-65
2023/05/01 05:13:26;;;;;;;6.53;2.83;;;6.30;99.90;;;;;;5062384;28;20043;-67
2023/05/01 05:15:52;;;;;;;5.03;2.08;;;6.30;99.90;;;;;;5065625;28;20105;-66
2023/05/01 05:18:18;;;;;;;4.65;1.83;;;6.40;99.90;;;;;;5045742;28;20041;-67
2023/05/01 05:20:43;;;;;;;;;;;6.50;99.90;;;;;;5063799;28;20032;-71
2023/05/01 05:23:09;;;;;;;4.38;2.30;;;6.60;99.90;;;;;;5062110;28;19916;-65
2023/05/01 05:25:35;;;;;;;5.43;1.65;;;6.70;99.90;;;;;;5055398;28;20043;-67
2023/05/01 05:28:00;;;;;;;3.03;2.03;;;6.80;99.90;;;;;;5062346;28;20036;-69
2023/05/01 05:30:27;;;;;;;4.00;1.60;;;7.00;99.90;;;;;;5051485;28;20497;-65
2023/05/01 05:32:52;;;;;;;6.72;1.75;;;7.10;99.90;;;;;;5058208;28;20041;-66
2023/05/01 05:35:18;;;;;;;;;;;7.20;99.90;;;;;;5046133;28;20119;-66
2023/05/01 05:37:44;;;;;;;6.05;1.92;;;7.40;99.90;;;;;;5068646;28;19917;-68
2023/05/01 05:40:10;;;;;;;2.60;1.60;;;7.50;99.90;;;;;;5048220;28;20992;-67
2023/05/01 05:42:36;;;;;;;4.13;2.10;;;7.70;99.90;;;;;;5062778;28;20059;-68
2023/05/01 05:45:01;;;;;;;;;;;7.80;99.90;;;;;;5066406;28;20063;-67
2023/05/01 05:47:27;;;;;;;4.10;2.00;;;7.90;99.90;;;;;;5050722;28;20356;-67
2023/05/01 05:49:54;;;;;;;;;;;8.00;99.90;;;;;;5064390;28;20801;-68
2023/05/01 05:52:20;;;;;;;5.22;1.77;;;8.10;99.90;;;;;;5057680;28;19970;-67
2023/05/01 05:54:46;;;;;;;5.43;1.80;;;8.30;99.90;;;;;;5065749;28;20052;-67
2023/05/01 05:57:12;;;;;;;4.22;2.45;;;8.40;99.90;;;;;;5055040;28;20041;-66
2023/05/01 05:59:38;;;;;;;;;;;8.40;99.90;;;;;;5062230;28;20514;-68
2023/05/01 06:02:03;;;;;;;6.03;2.13;;;8.60;99.90;;;;;;5043348;28;19924;-66
2023/05/01 06:04:29;;;;;;;5.22;2.03;;;8.70;99.90;;;;;;5064126;28;20036;-65
2023/05/01 06:06:55;;;;;;;10.85;2.78;;;8.80;99.90;;;;;;5049264;28;20067;-64
2023/05/01 06:09:21;;;;;;;5.13;2.38;;;8.90;99.90;;;;;;5062984;28;20101;-65
2023/05/01 06:11:47;;;;;;;;;;;9.00;99.90;;;;;;5043981;28;20040;-66
2023/05/01 06:14:13;;;;;;;7.68;1.95;;;9.10;99.90;;;;;;5060322;28;19955;-68
2023/05/01 06:16:39;;;;;;;6.40;2.17;;;9.20;99.90;;;;;;5041869;28;20721;-65
2023/05/01 06:19:04;;;;;;;;;;;9.30;99.90;;;;;;5063740;28;20178;-66
2023/05/01 06:21:33;;;;;;;2.92;1.83;;;9.40;99.90;;;;;;5061893;28;19999;-66
2023/05/01 06:23:59;;;;;;;6.20;2.25;;;9.50;99.90;;;;;;5047697;28;20036;-63
2023/05/01 06:26:25;;;;;;;;;;;9.60;99.90;;;;;;5069097;28;20041;-65
2023/05/01 06:28:51;;;;;;;5.75;1.98;;;9.70;99.90;;;;;;5053655;28;19920;-65
2023/05/01 06:31:17;;;;;;;;;;;9.70;99.90;;;;;;5044717;28;20036;-65
2023/05/01 06:33:42;;;;;;;4.63;1.77;;;9.90;99.90;;;;;;5065314;28;20485;-65
2023/05/01 06:36:08;;;;;;;;;;;10.00;99.90;;;;;;5065597;28;20140;-68
2023/05/01 06:38:33;;;;;;;4.45;2.83;;;10.20;99.90;;;;;;5054672;28;19923;-63
2023/05/01 06:40:59;;;;;;;;;;;10.40;99.90;;;;;;5063291;28;20431;-65
2023/05/01 06:43:29;;;;;;;4.53;2.35;;;10.50;99.90;;;;;;5063124;28;19916;-65
2023/05/01 06:45:56;;;;;;;4.18;2.22;;;10.70;99.90;;;;;;5064576;28;20052;-66
2023/05/01 06:48:21;;;;;;;4.32;2.25;;;10.90;99.90;;;;;;5063126;28;20047;-65
2023/05/01 06:50:47;;;;;;;;;;;11.00;99.90;;;;;;5063065;28;20672;-64
2023/05/01 06:53:13;;;;;;;4.82;2.10;;;11.20;99.90;;;;;;5059557;28;20362;-66
2023/05/01 06:55:38;;;;;;;;;;;11.40;99.90;;;;;;5064337;28;20048;-65
2023/05/01 06:58:05;;;;;;;6.75;2.10;;;11.60;99.90;;;;;;5051586;28;20404;-67
2023/05/01 07:00:32;;;;;;;11.48;2.97;;;11.70;99.90;;;;;;5060056;28;20048;-67
2023/05/01 07:02:58;;;;;;;26.67;3.72;;;11.90;99.90;;;;;;5058688;28;20047;-67
2023/05/01 07:05:23;;;;;;;;;;;12.00;99.90;;;;;;5059546;28;20037;-65
2023/05/01 07:07:49;;;;;;;4.70;2.08;;;12.10;99.90;;;;;;5060489;28;19925;-67
2023/05/01 07:10:14;;;;;;;;;;;12.20;99.90;;;;;;5064515;28;20028;-66
2023/05/01 07:12:40;;;;;;;5.13;1.95;;;12.30;99.90;;;;;;5073133;28;19918;-66
2023/05/01 07:15:06;;;;;;;;;;;12.40;99.90;;;;;;5070277;28;20039;-68
2023/05/01 07:17:33;;;;;;;4.18;2.35;;;12.40;99.90;;;;;;5060868;28;19922;-67
2023/05/01 07:20:00;;;;;;;4.38;2.00;;;12.50;99.90;;;;;;5059997;28;20052;-66
2023/05/01 07:22:25;;;;;;;4.25;2.00;;;12.60;99.90;;;;;;5061374;28;20094;-66
2023/05/01 07:24:51;;;;;;;;;;;12.70;99.90;;;;;;5063480;28;20500;-67
2023/05/01 07:27:16;;;;;;;4.95;2.00;;;13.00;99.90;;;;;;5063837;28;19916;-66
2023/05/01 07:29:43;;;;;;;;;;;13.10;99.90;;;;;;5066746;28;20878;-66
2023/05/01 07:32:09;;;;;;;5.33;2.13;;;13.30;99.90;;;;;;5063516;28;19995;-66
2023/05/01 07:34:34;;;;;;;;;;;13.60;99.70;;;;;;5069947;28;20115;-66
2023/05/01 07:37:00;;;;;;;5.07;2.20;;;13.80;98.20;;;;;;5066952;28;19921;-68
2023/05/01 07:39:26;;;;;;;;;;;14.10;98.50;;;;;;5066790;28;20036;-68
2023/05/01 07:41:51;;;;;;;4.60;2.53;;;14.40;97.80;;;;;;5050826;28;19951;-66
2023/05/01 07:44:17;;;;;;;;;;;14.60;96.10;;;;;;5066865;28;20037;-66
2023/05/01 07:46:43;;;;;;;3.70;2.22;;;14.70;95.60;;;;;;5065751;28;19966;-66
2023/05/01 07:49:08;;;;;;;;;;;14.90;96.10;;;;;;5066391;28;20041;-66
2023/05/01 07:51:34;;;;;;;2.80;1.70;;;15.10;95.40;;;;;;5064691;28;20003;-66
2023/05/01 07:54:03;;;;;;;8.00;2.00;;;15.70;96.00;;;;;;5066435;28;20066;-68
2023/05/01 07:56:30;;;;;;;4.53;1.60;;;16.00;93.30;;;;;;5067795;28;20600;-67
2023/05/01 07:58:56;;;;;;;5.25;2.40;;;16.10;94.30;;;;;;5063097;28;20141;-68
2023/05/01 08:01:21;;;;;;;;;;;16.40;92.90;;;;;;5049225;28;20535;-66
2023/05/01 08:03:47;;;;;;;5.28;1.80;;;16.40;91.40;;;;;;5064824;28;20002;-67
2023/05/01 08:06:13;;;;;;;3.90;1.98;;;16.80;90.90;;;;;;5065933;28;20040;-67
2023/05/01 08:08:38;;;;;;;2.63;1.63;;;16.80;90.80;;;;;;5063773;28;20142;-67
2023/05/01 08:11:04;;;;;;;;;;;16.60;89.20;;;;;;5065239;28;20127;-67
2023/05/01 08:13:30;;;;;;;5.25;2.10;;;16.70;91.90;;;;;;5064562;28;19924;-66
2023/05/01 08:16:00;;;;;;;7.00;2.40;;;16.80;92.50;;;;;;5066194;28;20540;-66
2023/05/01 08:18:26;;;;;;;4.25;2.10;;;16.90;91.80;;;;;;5066037;28;20040;-67
2023/05/01 08:20:51;;;;;;;;;;;16.90;90.50;;;;;;5053219;28;20043;-66
2023/05/01 08:23:17;;;;;;;3.13;1.75;;;16.90;89.00;;;;;;5074063;28;19977;-69
2023/05/01 08:25:45;;;;;;;3.45;1.70;;;17.20;90.10;;;;;;5072845;28;20041;-66
2023/05/01 08:28:15;;;;;;;2.95;1.63;;;17.50;90.90;;;;;;5065735;28;20079;-68
2023/05/01 08:30:40;;;;;;;3.65;1.92;;;17.90;87.00;;;;;;5063567;28;20111;-66
2023/05/01 08:33:06;;;;;;;;;;;18.00;90.00;;;;;;5063894;28;20210;-66
2023/05/01 08:35:32;;;;;;;3.85;1.58;;;18.70;83.90;;;;;;5076389;28;20299;-66
2023/05/01 08:37:57;;;;;;;3.10;1.58;;;19.40;79.10;;;;;;5065328;28;20174;-66
2023/05/01 08:40:24;;;;;;;;;;;19.90;78.00;;;;;;5065042;28;20120;-66
2023/05/01 08:42:50;;;;;;;2.85;1.38;;;19.90;79.30;;;;;;5062135;28;20525;-66
2023/05/01 08:45:20;;;;;;;2.92;1.50;;;19.30;76.20;;;;;;5050707;28;20076;-66
2023/05/01 08:47:48;;;;;;;4.60;2.10;;;18.80;78.50;;;;;;5064832;28;20049;-65
2023/05/01 08:50:16;;;;;;;5.32;2.22;;;18.20;81.90;;;;;;5064961;28;20098;-66
2023/05/01 08:52:42;;;;;;;4.40;1.88;;;17.90;84.30;;;;;;5063490;28;20044;-66
2023/05/01 08:55:13;;;;;;;3.33;2.08;;;17.50;85.90;;;;;;5065681;28;20079;-65
2023/05/01 08:57:43;;;;;;;3.95;1.70;;;17.40;85.00;;;;;;5065527;28;20037;-66
2023/05/01 09:00:15;;;;;;;2.75;1.58;;;17.40;86.10;;;;;;5064720;28;20187;-66
2023/05/01 09:02:43;;;;;;;3.28;1.70;;;17.50;86.30;;;;;;5060468;28;20119;-65
2023/05/01 09:05:09;;;;;;;3.45;1.58;;;17.90;85.40;;;;;;5063976;28;20072;-65
2023/05/01 09:07:36;;;;;;;7.53;2.20;;;17.90;85.80;;;;;;5066489;28;20400;-66
2023/05/01 09:10:02;;;;;;;3.85;1.58;;;18.00;82.60;;;;;;5063643;28;20044;-67
2023/05/01 09:12:28;;;;;;;;;;;17.80;82.50;;;;;;5059629;28;20051;-66
2023/05/01 09:14:55;;;;;;;2.95;1.40;;;17.70;84.10;;;;;;5061311;28;20007;-65
2023/05/01 09:17:22;;;;;;;6.25;2.17;;;17.70;85.40;;;;;;5064121;28;20555;-67
2023/05/01 09:19:49;;;;;;;5.85;1.85;;;17.80;83.20;;;;;;5065368;28;20113;-67
2023/05/01 09:22:17;;;;;;;3.55;1.40;;;18.00;80.70;;;;;;5054404;28;20048;-68
2023/05/01 09:24:43;;;;;;;3.45;1.50;;;18.00;82.60;;;;;;5063277;28;20079;-66
2023/05/01 09:27:12;;;;;;;3.10;1.38;;;17.70;82.20;;;;;;5061180;28;20500;-67
2023/05/01 09:29:41;;;;;;;2.13;1.20;;;17.60;79.00;;;;;;5059387;28;20048;-67
2023/05/01 09:32:15;;;;;;;2.40;1.45;;;17.50;80.10;;;;;;5061017;28;20385;-66
2023/05/01 09:34:42;;;;;;;2.00;1.20;;;17.20;76.80;;;;;;5063515;28;20068;-67
2023/05/01 09:37:29;;;;;;;1.95;0.98;;;17.10;78.40;;;;;;5050510;28;20040;-67
2023/05/01 09:40:12;;;;;;;2.05;1.13;;;17.10;81.50;;;;;;5032575;28;20143;-66
2023/05/01 09:42:50;;;;;;;4.35;1.48;;;17.00;79.10;;;;;;5052469;28;20408;-65
2023/05/01 09:45:16;;;;;;;2.00;1.23;;;16.80;77.90;;;;;;5061597;28;20032;-67
2023/05/01 09:47:42;;;;;;;;;;;16.60;81.80;;;;;;5063671;28;20051;-67
2023/05/01 09:50:11;;;;;;;1.90;1.30;;;16.40;79.80;;;;;;5062213;28;19947;-66
2023/05/01 09:52:37;;;;;;;2.10;1.20;;;16.20;84.80;;;;;;5059412;28;20048;-67
2023/05/01 09:55:12;;;;;;;;;;;16.10;89.10;;;;;;5045960;28;20038;-67
2023/05/01 09:57:38;;;;;;;2.85;1.38;;;16.00;90.10;;;;;;5063626;28;20454;-66
2023/05/01 10:00:07;;;;;;;4.18;1.65;;;16.20;90.10;;;;;;5062323;28;20033;-66
2023/05/01 10:02:33;;;;;;;5.65;1.65;;;16.20;90.70;;;;;;5058025;28;20690;-66
2023/05/01 10:04:59;;;;;;;3.50;1.58;;;16.20;89.80;;;;;;5063554;28;20784;-66
2023/05/01 10:07:26;;;;;;;2.80;1.60;;;15.90;89.70;;;;;;5060407;28;20036;-67
2023/05/01 10:09:52;;;;;;;4.05;1.73;;;15.80;91.50;;;;;;5048109;28;20076;-67
2023/05/01 10:12:29;;;;;;;4.90;1.75;;;15.70;91.30;;;;;;5063098;28;20036;-67
2023/05/01 10:14:57;;;;;;;4.20;2.05;;;15.70;92.50;;;;;;5055282;28;20090;-67
2023/05/01 10:17:23;;;;;;;7.47;1.77;;;15.60;90.90;;;;;;5045985;28;20048;-67
2023/05/01 10:19:50;;;;;;;;;;;15.60;91.30;;;;;;5063441;28;20579;-67
2023/05/01 10:22:16;;;;;;;3.22;1.60;;;15.60;90.90;;;;;;5055492;28;20027;-71
2023/05/01 10:24:44;;;;;;;6.45;1.23;;;15.60;91.10;;;;;;5063288;28;21054;-67
2023/05/01 10:27:11;;;;;;;2.42;2.00;;;15.60;90.80;;;;;;5058054;28;20408;-66
2023/05/01 10:29:40;;;;;;;3.25;1.58;;;15.60;92.10;;;;;;5068217;28;20162;-67
2023/05/01 10:32:07;;;;;;;3.42;1.65;;;15.60;92.20;;;;;;5050800;28;20038;-66
2023/05/01 10:34:42;;;;;;;4.70;2.22;;;15.50;91.50;;;;;;5071776;28;20128;-64
2023/05/01 10:37:17;;;;;;;3.53;1.70;;;15.40;90.00;;;;;;5066676;28;20056;-66
2023/05/01 10:39:43;;;;;;;2.22;1.40;;;15.30;91.40;;;;;;5067271;28;20148;-66
2023/05/01 10:42:18;;;;;;;;;;;15.40;90.70;;;;;;5071799;28;20115;-67
2023/05/01 10:44:46;;;;;;;3.92;1.75;;;15.40;89.70;;;;;;5069694;28;19919;-66
2023/05/01 10:47:34;;;;;;;4.43;2.13;;;15.30;90.70;;;;;;5072073;28;20032;-65
2023/05/01 10:50:14;;;;;;;2.30;1.40;;;15.30;90.80;;;;;;5059355;28;20056;-65
2023/05/01 10:53:08;;;;;;;3.72;1.60;;;15.30;91.30;;;;;;5041360;28;20035;-65
2023/05/01 10:55:34;;;;;;;4.75;1.50;;;15.30;91.20;;;;;;5060183;28;20948;-64
2023/05/01 10:57:59;;;;;;;2.00;1.20;;;15.30;90.70;;;;;;5053402;28;20041;-67
2023/05/01 11:00:25;;;;;;;;;;;15.30;91.20;;;;;;5062486;28;20043;-66
2023/05/01 11:02:51;;;;;;;7.97;1.45;;;15.30;90.10;;;;;;5047824;28;19981;-65
2023/05/01 11:05:17;;;;;;;;;;;15.30;90.90;;;;;;5043235;28;20087;-65
2023/05/01 11:07:42;;;;;;;3.30;1.58;;;15.30;88.80;;;;;;5062933;28;19921;-66
2023/05/01 11:10:26;;;;;;;;;;;15.40;90.40;;;;;;5059677;28;20111;-66
2023/05/01 11:12:52;;;;;;;4.40;1.35;;;15.40;91.20;;;;;;5054451;28;19916;-65
2023/05/01 11:15:28;;;;;;;;;;;15.50;90.10;;;;;;5065044;28;20041;-66
2023/05/01 11:17:54;;;;;;;8.18;1.88;;;15.50;88.20;;;;;;5065353;28;19921;-65
2023/05/01 11:20:26;;;;;;;2.15;1.50;;;15.50;88.50;;;;;;5062284;28;20654;-66
2023/05/01 11:22:54;;;;;;;6.18;1.33;;;15.60;87.60;;;;;;5064988;28;20737;-66
2023/05/01 11:25:22;;;;;;;1.52;1.20;;;15.50;90.20;;;;;;5064703;28;20040;-66
2023/05/01 11:27:53;;;;;;;3.30;1.65;;;15.50;91.50;;;;;;5070321;28;20039;-65
2023/05/01 11:30:19;;;;;;;1.90;1.30;;;15.40;90.00;;;;;;5043692;28;20747;-65
2023/05/01 11:32:46;;;;;;;2.30;1.50;;;15.50;88.90;;;;;;5060892;28;20055;-65
2023/05/01 11:35:22;;;;;;;1.67;1.30;;;15.50;89.90;;;;;;5064010;28;20037;-66
2023/05/01 11:37:58;;;;;;;4.47;1.63;;;15.60;89.00;;;;;;5063132;28;20080;-66
2023/05/01 11:40:26;;;;;;;2.40;1.45;;;15.60;90.70;;;;;;5061993;28;20036;-65
2023/05/01 11:43:05;;;;;;;2.78;1.25;;;15.60;89.50;;;;;;5062144;28;20049;-64
2023/05/01 11:45:32;;;;;;;2.83;1.48;;;15.60;89.10;;;;;;5062542;28;20042;-66
2023/05/01 11:47:59;;;;;;;3.55;1.55;;;15.50;86.60;;;;;;5057125;28;20480;-65
2023/05/01 11:50:32;;;;;;;2.25;1.20;;;15.60;88.80;;;;;;5063435;28;20048;-66
2023/05/01 11:52:57;;;;;;;3.50;1.20;;;15.70;90.30;;;;;;5063703;28;20036;-66
2023/05/01 11:55:30;;;;;;;;;;;15.80;88.20;;;;;;5061075;28;20051;-66
2023/05/01 11:57:57;;;;;;;2.72;1.55;;;16.00;87.20;;;;;;5062074;28;19916;-64
2023/05/01 12:00:27;;;;;;;4.32;1.20;;;16.30;87.50;;;;;;5058869;28;20766;-66
2023/05/01 12:02:59;;;;;;;5.72;1.60;;;16.70;85.30;;;;;;5063487;28;20052;-65
2023/05/01 12:05:27;;;;;;;5.63;1.70;;;17.00;83.40;;;;;;5049869;28;20516;-65
2023/05/01 12:08:10;;;;;;;1.73;1.20;;;17.00;81.60;;;;;;5063309;28;20045;-67
2023/05/01 12:10:36;;;;;;;1.80;1.10;;;17.20;82.30;;;;;;5060566;28;20725;-66
2023/05/01 12:13:03;;;;;;;1.27;1.08;;;17.10;82.30;;;;;;5060318;28;20041;-67
2023/05/01 12:15:30;;;;;;;2.55;1.30;;;17.10;81.70;;;;;;5060071;28;20174;-67
2023/05/01 12:17:57;;;;;;;4.07;1.45;;;17.00;81.10;;;;;;5063857;28;20075;-65
2023/05/01 12:20:43;;;;;;;2.78;1.45;;;16.90;82.80;;;;;;5048075;28;20040;-64
2023/05/01 12:23:14;;;;;;;5.78;1.23;;;16.90;83.20;;;;;;5065636;28;20052;-66
2023/05/01 12:25:41;;;;;;;3.33;1.05;;;17.00;83.10;;;;;;5064967;28;20158;-66
2023/05/01 12:28:17;;;;;;;2.42;1.35;;;17.10;82.50;;;;;;5065238;28;20048;-66
2023/05/01 12:30:44;;;;;;;1.48;1.10;;;17.30;88.00;;;;;;5063168;28;20120;-65
2023/05/01 12:33:18;;;;;;;2.17;1.10;;;17.40;81.10;;;;;;5049034;28;20047;-66
2023/05/01 12:35:46;;;;;;;1.60;1.00;;;17.50;79.80;;;;;;5077162;28;20040;-65
2023/05/01 12:38:19;;;;;;;4.68;0.85;;;17.40;79.30;;;;;;5063216;28;20037;-67
2023/05/01 12:40:59;;;;;;;3.15;1.00;;;17.40;80.00;;;;;;5053285;28;20047;-67
2023/05/01 12:43:36;;;;;;;3.15;1.08;;;17.50;81.80;;;;;;5065265;28;20037;-66
2023/05/01 12:46:04;;;;;;;2.97;1.10;;;17.60;82.40;;;;;;5065155;28;20050;-66
2023/05/01 12:48:31;;;;;;;3.20;1.20;;;17.70;81.00;;;;;;5066709;28;20068;-66
2023/05/01 12:50:59;;;;;;;2.25;1.10;;;17.70;80.00;;;;;;5064584;28;20036;-65
2023/05/01 12:53:26;;;;;;;3.20;1.20;;;17.50;79.10;;;;;;5047821;28;20369;-65
2023/05/01 12:55:55;;;;;;;1.25;1.00;;;17.50;78.50;;;;;;5065199;28;20036;-66
2023/05/01 12:58:21;;;;;;;2.05;1.38;;;17.40;78.90;;;;;;5067343;28;20059;-66
2023/05/01 13:00:52;;;;;;;4.70;1.48;;;17.40;82.20;;;;;;5060648;28;20037;-67
2023/05/01 13:03:26;;;;;;;2.30;1.20;;;17.30;83.30;;;;;;5065020;28;20056;-66
2023/05/01 13:05:54;;;;;;;4.88;1.23;;;17.20;86.10;;;;;;5065978;28;20036;-65
2023/05/01 13:08:26;;;;;;;2.78;1.55;;;17.20;86.30;;;;;;5064434;28;20109;-65
2023/05/01 13:10:57;;;;;;;4.47;1.20;;;17.20;85.80;;;;;;5062150;28;20853;-66